Time;durP1;ratioP1;P1;durP2;ratioP2;P2;SDS_P1;SDS_P2;PMS_P1;PMS_P2;Temp;Humidity;BMP_temperature;BMP_pressure;BME280_temperature;BME280_humidity;BME280_pressure;Samples;Min_cycle;Max_cycle;Signal;HPM_P1;HPM_P2
2022/11/25 00:01:16;;;;;;;3.47;1.90;;;;;;;21.30;41.10;100996.88;5026885;28;20090;-70
2022/11/25 00:03:42;;;;;;;3.53;2.20;;;;;;;21.40;40.90;101000.91;5027437;28;20092;-69
2022/11/25 00:06:14;;;;;;;5.20;2.28;;;;;;;21.27;41.19;100989.31;5024833;28;20118;-69
2022/11/25 00:08:41;;;;;;;3.63;2.13;;;;;;;21.28;41.02;100996.25;5027574;28;20037;-69
2022/11/25 00:11:07;;;;;;;5.13;2.53;;;;;;;21.36;41.17;100991.69;5027997;28;20504;-69
2022/11/25 00:13:32;;;;;;;5.85;2.10;;;;;;;21.33;40.89;100989.38;5024254;28;20048;-69
2022/11/25 00:16:19;;;;;;;3.42;2.05;;;;;;;21.26;41.16;100985.84;5024466;28;20041;-69
2022/11/25 00:18:50;;;;;;;6.20;2.35;;;;;;;21.32;40.95;100978.97;5027505;28;20029;-68
2022/11/25 00:21:18;;;;;;;5.13;2.15;;;;;;;21.29;41.13;100974.06;5025747;28;20654;-69
2022/11/25 00:23:50;;;;;;;3.60;2.30;;;;;;;21.24;40.88;100966.69;5024249;28;20040;-69
2022/11/25 00:26:16;;;;;;;6.22;2.35;;;;;;;21.25;41.07;100968.31;5030802;28;20067;-69
2022/11/25 00:28:44;;;;;;;4.63;2.10;;;;;;;21.24;41.08;100985.22;5026634;28;20368;-69
2022/11/25 00:31:12;;;;;;;4.85;2.08;;;;;;;21.20;41.13;100972.50;5025933;28;20051;-69
2022/11/25 00:33:38;;;;;;;6.30;2.65;;;;;;;21.27;40.96;100979.53;5026124;28;20521;-70
2022/11/25 00:36:06;;;;;;;5.50;2.38;;;;;;;21.21;41.29;100972.31;5025335;28;20040;-69
2022/11/25 00:38:32;;;;;;;3.63;2.17;;;;;;;21.27;41.21;100958.34;5028261;28;20049;-69
2022/11/25 00:46:26;;;;;;;4.18;1.92;;;;;;;21.21;41.11;100972.31;5033991;28;20033;-69
2022/11/25 00:48:51;;;;;;;3.92;2.03;;;;;;;21.25;40.90;100975.44;5034531;28;20091;-69
2022/11/25 00:51:17;;;;;;;4.22;2.25;;;;;;;21.19;41.33;100976.16;5026029;28;20128;-69
2022/11/25 00:53:43;;;;;;;4.13;2.22;;;;;;;21.23;41.13;100959.72;5029445;28;20112;-69
2022/11/25 00:56:12;;;;;;;3.97;2.03;;;;;;;21.18;41.27;100971.84;5031404;28;20132;-69
2022/11/25 00:58:38;;;;;;;4.38;1.77;;;;;;;21.16;41.16;100972.03;5031244;28;20041;-69
2022/11/25 01:01:04;;;;;;;4.20;2.00;;;;;;;21.14;41.48;100971.41;5033046;28;20036;-69
2022/11/25 01:03:29;;;;;;;5.38;2.28;;;;;;;21.13;41.29;100959.16;5033172;28;20112;-69
2022/11/25 01:06:00;;;;;;;5.88;2.20;;;;;;;21.14;41.41;100968.75;5031698;28;20037;-69
2022/11/25 01:08:26;;;;;;;3.78;2.00;;;;;;;21.21;41.28;100972.31;5031862;28;20041;-69
2022/11/25 01:11:04;;;;;;;5.18;2.08;;;;;;;21.20;41.10;100972.50;5038522;28;20046;-69
2022/11/25 01:13:30;;;;;;;5.28;2.33;;;;;;;21.13;41.35;100967.94;5029644;28;20040;-69
2022/11/25 01:15:56;;;;;;;4.65;2.20;;;;;;;21.12;41.23;100970.75;5029406;28;20045;-69
2022/11/25 01:18:22;;;;;;;5.22;2.13;;;;;;;21.04;41.28;100963.75;5029506;28;20399;-69
2022/11/25 01:20:47;;;;;;;3.88;2.17;;;;;;;21.16;41.22;100969.38;5033870;28;20040;-69
2022/11/25 01:23:13;;;;;;;5.57;2.08;;;;;;;21.11;41.50;100974.41;5032856;28;20703;-68
2022/11/25 01:25:39;;;;;;;4.78;1.80;;;;;;;21.07;41.35;100963.38;5030760;28;20052;-70
2022/11/25 01:28:05;;;;;;;6.18;2.75;;;;;;;21.07;41.45;100968.69;5033259;28;20037;-68
2022/11/25 01:30:31;;;;;;;5.75;2.05;;;;;;;21.07;41.28;100966.03;5036591;28;20044;-68
2022/11/25 01:32:56;;;;;;;5.00;2.38;;;;;;;21.03;41.66;100971.88;5028759;28;20047;-68
2022/11/25 01:35:22;;;;;;;4.20;2.17;;;;;;;21.02;41.49;100968.41;5026382;28;20044;-69
2022/11/25 01:37:47;;;;;;;5.70;2.35;;;;;;;21.13;41.23;100972.41;5027381;28;20041;-68
2022/11/25 01:40:13;;;;;;;5.78;2.17;;;;;;;21.11;41.48;100966.47;5030172;28;20061;-68
2022/11/25 01:42:45;;;;;;;3.53;2.42;;;;;;;21.07;41.40;100965.22;5031364;28;20071;-68
2022/11/25 01:45:23;;;;;;;4.80;2.20;;;;;;;21.06;41.54;100963.56;5021262;28;20044;-68
2022/11/25 01:47:57;;;;;;;4.25;2.10;;;;;;;21.03;41.26;100964.75;5030216;28;20120;-68
2022/11/25 01:50:26;;;;;;;3.55;2.35;;;;;;;20.99;41.26;100966.09;5035992;28;20032;-68
2022/11/25 01:52:55;;;;;;;5.20;2.10;;;;;;;21.06;41.45;100969.69;5032211;28;20971;-70
2022/11/25 01:55:25;;;;;;;5.38;1.90;;;;;;;21.03;41.29;100959.47;5029420;28;20098;-68
2022/11/25 01:58:01;;;;;;;3.97;1.80;;;;;;;21.03;41.52;100964.75;5028390;28;20040;-68
2022/11/25 02:00:27;;;;;;;5.68;2.10;;;;;;;21.08;41.19;100959.72;5034110;28;20383;-70
2022/11/25 02:02:54;;;;;;;4.43;2.10;;;;;;;21.06;41.33;100953.78;5026815;28;20041;-69
2022/11/25 02:05:51;;;;;;;2.65;1.80;;;;;;;21.02;41.49;100954.34;5027627;28;20086;-70
2022/11/25 02:08:18;;;;;;;5.90;1.90;;;;;;;20.98;41.50;100953.06;5030054;28;20055;-69
2022/11/25 02:10:44;;;;;;;4.03;1.73;;;;;;;20.98;41.71;100955.72;5027021;28;20467;-69
2022/11/25 02:13:10;;;;;;;4.75;2.00;;;;;;;21.02;41.21;100960.47;5034567;28;20033;-70
2022/11/25 02:15:35;;;;;;;4.15;1.67;;;;;;;20.99;41.64;100962.63;5024847;28;20129;-69
2022/11/25 02:18:03;;;;;;;4.45;2.15;;;;;;;21.01;41.50;100963.31;5030741;28;20048;-70
2022/11/25 02:20:29;;;;;;;2.90;2.00;;;;;;;20.97;41.60;100962.81;5028275;28;20033;-69
2022/11/25 02:23:03;;;;;;;3.78;1.75;;;;;;;21.01;41.62;100969.41;5034496;28;20102;-69
2022/11/25 02:25:32;;;;;;;4.68;2.05;;;;;;;21.02;41.56;100963.13;5021687;28;20041;-69
2022/11/25 02:28:29;;;;;;;5.20;2.40;;;;;;;20.95;41.49;100959.53;5028880;28;20024;-69
2022/11/25 02:30:55;;;;;;;4.68;2.20;;;;;;;20.95;41.59;100966.66;5025877;28;20112;-69
2022/11/25 02:33:22;;;;;;;3.85;2.17;;;;;;;20.94;41.58;100963.19;5026582;28;20696;-70
2022/11/25 02:36:18;;;;;;;5.38;1.80;;;;;;;20.92;41.76;100967.88;5029338;28;20514;-70
2022/11/25 02:38:54;;;;;;;5.72;2.53;;;;;;;20.97;41.63;100960.19;5026911;28;20053;-70
2022/11/25 02:41:29;;;;;;;5.40;2.33;;;;;;;20.90;41.54;100956.63;5029108;28;20535;-70
2022/11/25 02:43:59;;;;;;;3.30;1.85;;;;;;;20.93;41.60;100943.03;5037913;28;20056;-70
2022/11/25 02:46:26;;;;;;;4.28;2.05;;;;;;;20.95;41.40;100948.97;5019200;28;20622;-69
2022/11/25 02:48:53;;;;;;;4.55;1.63;;;;;;;20.97;41.51;100943.47;5029990;28;21745;-70
2022/11/25 02:51:22;;;;;;;4.95;2.42;;;;;;;20.91;41.52;100946.88;5028918;28;20049;-69
2022/11/25 02:53:48;;;;;;;4.95;2.40;;;;;;;20.94;41.59;100957.09;5044288;28;20041;-69
2022/11/25 02:56:16;;;;;;;4.10;2.42;;;;;;;20.98;41.50;100955.72;5022726;28;20033;-69
2022/11/25 02:58:42;;;;;;;5.88;2.10;;;;;;;20.94;41.42;100955.25;5032622;28;20044;-69
2022/11/25 03:01:08;;;;;;;3.22;1.90;;;;;;;20.98;41.35;100951.22;5023529;28;21312;-69
2022/11/25 03:03:34;;;;;;;6.57;2.72;;;;;;;20.91;41.56;100955.63;5043492;28;20052;-69
2022/11/25 03:06:00;;;;;;;3.75;2.00;;;;;;;20.94;41.53;100960.56;5024229;28;20176;-69
2022/11/25 03:08:26;;;;;;;6.07;1.90;;;;;;;20.89;41.56;100960.28;5033323;28;20041;-69
2022/11/25 03:10:52;;;;;;;3.63;2.00;;;;;;;20.93;41.75;100958.91;5029164;28;20033;-69
2022/11/25 03:13:17;;;;;;;2.75;1.95;;;;;;;20.93;41.70;100963.38;5024950;28;20044;-70
2022/11/25 03:15:43;;;;;;;3.58;1.80;;;;;;;20.92;41.59;100957.28;5030811;28;20099;-69
2022/11/25 03:18:09;;;;;;;5.07;2.20;;;;;;;20.91;41.51;100962.75;5028294;28;20037;-69
2022/11/25 03:20:35;;;;;;;3.55;2.00;;;;;;;20.92;41.67;100964.41;5026254;28;20048;-69
2022/11/25 03:23:03;;;;;;;4.05;2.08;;;;;;;20.93;41.65;100966.84;5023350;28;20127;-69
2022/11/25 03:25:29;;;;;;;5.88;2.05;;;;;;;20.87;41.79;100969.41;5025491;28;20037;-69
2022/11/25 03:27:55;;;;;;;4.35;1.75;;;;;;;20.89;41.63;100972.72;5027324;28;20682;-69
2022/11/25 03:30:23;;;;;;;3.35;1.88;;;;;;;20.91;41.56;100960.94;5029721;28;20060;-69
2022/11/25 03:32:52;;;;;;;4.53;2.00;;;;;;;20.84;41.71;100967.97;5029916;28;20033;-69
2022/11/25 03:35:18;;;;;;;3.08;1.75;;;;;;;20.84;41.83;100960.03;5005891;28;20037;-69
2022/11/25 03:37:45;;;;;;;3.50;2.03;;;;;;;20.88;41.79;100966.59;5024955;28;20135;-69
2022/11/25 03:40:13;;;;;;;5.53;2.03;;;;;;;20.81;41.83;100960.38;5030131;28;20083;-69
2022/11/25 03:42:39;;;;;;;4.47;1.88;;;;;;;20.81;41.68;100961.19;5029947;28;20037;-68
2022/11/25 03:45:08;;;;;;;3.70;2.10;;;;;;;20.80;41.92;100964.03;5028989;28;20037;-69
2022/11/25 03:47:34;;;;;;;4.88;1.90;;;;;;;20.84;41.80;100967.16;5028001;28;20103;-69
2022/11/25 03:50:00;;;;;;;2.47;1.70;;;;;;;20.90;41.63;100961.13;5019004;28;20037;-69
2022/11/25 03:52:27;;;;;;;2.75;1.90;;;;;;;20.87;41.83;100962.31;5042216;28;20040;-69
2022/11/25 03:54:52;;;;;;;3.38;2.10;;;;;;;20.85;41.63;100960.84;5025579;28;20029;-69
2022/11/25 03:57:20;;;;;;;3.60;2.00;;;;;;;20.81;41.80;100965.66;5015225;28;20036;-69
2022/11/25 03:59:46;;;;;;;3.58;1.70;;;;;;;20.74;41.92;100964.75;5026860;28;20450;-68
2022/11/25 04:02:13;;;;;;;3.67;1.88;;;;;;;20.85;41.90;100960.84;5014109;28;20078;-69
2022/11/25 04:04:39;;;;;;;3.30;2.00;;;;;;;20.78;41.69;100958.09;5025156;28;20041;-69
2022/11/25 04:07:04;;;;;;;2.97;1.90;;;;;;;20.87;41.64;100958.84;5027522;28;20038;-69
2022/11/25 04:09:30;;;;;;;3.97;2.30;;;;;;;20.78;41.85;100966.03;5025057;28;20041;-69
2022/11/25 04:14:51;;;;;;;4.35;2.10;;;;;;;20.81;41.66;100978.91;5041500;28;22155;-69
2022/11/25 04:17:17;;;;;;;4.30;2.17;;;;;;;20.84;41.74;100981.19;5027682;28;20059;-69
2022/11/25 04:19:43;;;;;;;3.97;1.80;;;;;;;20.85;41.62;100980.19;5030906;28;20044;-69
2022/11/25 04:22:10;;;;;;;2.65;1.83;;;;;;;20.76;42.04;100983.91;5026070;28;20041;-69
2022/11/25 04:24:38;;;;;;;4.10;1.88;;;;;;;20.83;41.64;100979.56;5020380;28;20045;-69
2022/11/25 04:27:04;;;;;;;2.90;1.65;;;;;;;20.74;41.91;100978.00;5026451;28;20044;-68
2022/11/25 04:29:30;;;;;;;3.63;2.05;;;;;;;20.76;41.92;100975.97;5028320;28;20032;-69
2022/11/25 04:31:58;;;;;;;4.35;1.70;;;;;;;20.75;41.83;100992.88;5025482;28;20450;-69
2022/11/25 04:34:24;;;;;;;2.88;1.52;;;;;;;20.75;42.01;100992.88;5026526;28;20037;-69
2022/11/25 04:36:51;;;;;;;3.83;2.22;;;;;;;20.78;41.88;100988.03;5023852;28;21445;-69
2022/11/25 04:39:17;;;;;;;4.75;1.80;;;;;;;20.78;41.94;100992.50;5028685;28;20041;-69
2022/11/25 04:41:43;;;;;;;3.47;1.92;;;;;;;20.79;41.85;100984.38;5020213;28;20072;-69
2022/11/25 04:44:09;;;;;;;3.67;2.00;;;;;;;20.85;41.90;100996.06;5031951;28;20033;-69
2022/11/25 04:46:39;;;;;;;3.60;1.92;;;;;;;20.81;41.91;100997.41;5025058;28;20630;-69
2022/11/25 04:49:05;;;;;;;4.73;2.10;;;;;;;20.76;41.92;100994.50;5031265;28;20079;-69
2022/11/25 04:51:31;;;;;;;4.78;1.83;;;;;;;20.77;42.02;100999.63;5021036;28;20589;-69
2022/11/25 04:54:00;;;;;;;6.03;1.93;;;;;;;20.76;42.00;100999.81;5024510;28;20044;-69
2022/11/25 04:56:25;;;;;;;2.88;1.80;;;;;;;20.71;41.98;100996.88;5027614;28;20045;-69
2022/11/25 05:01:44;;;;;;;4.53;2.08;;;;;;;20.71;42.09;100995.06;5023160;28;20072;-69
2022/11/25 05:04:21;;;;;;;4.35;1.98;;;;;;;20.76;41.88;100981.28;5027297;28;20083;-69
2022/11/25 05:06:50;;;;;;;4.15;1.98;;;;;;;20.71;42.06;100986.31;5027279;28;20040;-69
2022/11/25 05:09:16;;;;;;;3.33;2.10;;;;;;;20.73;41.81;100973.69;5035952;28;20040;-69
2022/11/25 05:11:44;;;;;;;2.63;1.73;;;;;;;20.75;41.73;100982.28;5023757;28;20060;-68
2022/11/25 05:14:10;;;;;;;4.18;1.70;;;;;;;20.72;41.78;100993.22;5027994;28;20391;-69
2022/11/25 05:16:37;;;;;;;2.85;1.95;;;;;;;20.74;41.95;100988.56;5015298;28;20178;-69
2022/11/25 05:19:02;;;;;;;4.72;2.00;;;;;;;20.70;42.05;100987.31;5022296;28;20033;-69
2022/11/25 05:21:28;;;;;;;4.35;2.00;;;;;;;20.71;42.06;100989.75;5029768;28;20585;-69
2022/11/25 05:23:54;;;;;;;3.83;2.00;;;;;;;20.67;41.85;100993.78;5030002;28;20032;-69
2022/11/25 05:26:20;;;;;;;5.00;1.83;;;;;;;20.68;42.07;100991.97;5034012;28;20427;-68
2022/11/25 05:28:49;;;;;;;3.40;1.67;;;;;;;20.72;41.90;101002.00;5031361;28;20518;-69
2022/11/25 05:31:14;;;;;;;5.82;1.85;;;;;;;20.65;41.93;101016.97;5033844;28;20033;-69
2022/11/25 05:33:40;;;;;;;5.70;1.80;;;;;;;20.64;42.25;101017.13;5031851;28;20097;-69
2022/11/25 05:36:09;;;;;;;3.25;1.88;;;;;;;20.68;41.90;101018.41;5029977;28;20045;-69
2022/11/25 05:38:43;;;;;;;3.67;1.52;;;;;;;20.69;42.02;101022.72;5029722;28;20029;-69
2022/11/25 05:41:12;;;;;;;4.43;1.95;;;;;;;20.62;42.01;101021.78;5036915;28;20049;-69
2022/11/25 05:43:40;;;;;;;3.40;1.95;;;;;;;20.67;41.97;101030.00;5029322;28;20052;-69
2022/11/25 05:46:06;;;;;;;4.70;2.20;;;;;;;20.67;42.08;101028.19;5030333;28;20037;-69
2022/11/25 05:48:33;;;;;;;4.15;1.80;;;;;;;20.62;42.08;101019.94;5030678;28;20594;-69
2022/11/25 05:51:03;;;;;;;4.25;1.73;;;;;;;20.68;42.05;101026.34;5022186;28;20040;-69
2022/11/25 05:53:30;;;;;;;3.10;1.90;;;;;;;20.68;41.89;101023.72;5032780;28;20033;-69
2022/11/25 05:55:58;;;;;;;3.00;1.70;;;;;;;20.72;41.88;101028.47;5042284;28;20060;-69
2022/11/25 05:58:43;;;;;;;4.32;2.00;;;;;;;20.67;41.85;101035.31;5026151;28;20037;-69
2022/11/25 06:01:10;;;;;;;4.13;1.55;;;;;;;20.69;42.00;101035.94;5033474;28;20036;-69
2022/11/25 06:03:37;;;;;;;2.55;1.52;;;;;;;20.67;41.86;101035.31;5030810;28;20039;-69
2022/11/25 06:06:03;;;;;;;3.58;1.40;;;;;;;20.63;42.07;101040.09;5025410;28;20049;-69
2022/11/25 06:08:31;;;;;;;3.33;1.92;;;;;;;20.57;42.23;101042.66;5014745;28;20116;-69
2022/11/25 06:10:57;;;;;;;2.75;1.80;;;;;;;20.65;41.85;101043.41;5032644;28;20037;-69
2022/11/25 06:13:22;;;;;;;4.07;1.85;;;;;;;20.65;41.93;101045.25;5042019;28;20617;-69
2022/11/25 06:15:49;;;;;;;4.68;1.77;;;;;;;20.59;42.14;101046.75;5025380;28;21020;-69
2022/11/25 06:18:17;;;;;;;4.13;2.30;;;;;;;20.62;41.97;101037.63;5024838;28;20137;-69
2022/11/25 06:20:43;;;;;;;3.85;1.80;;;;;;;20.55;42.18;101050.78;5027366;28;20072;-69
2022/11/25 06:23:09;;;;;;;4.68;1.88;;;;;;;20.59;42.18;101053.88;5027833;28;20033;-69
2022/11/25 06:25:36;;;;;;;3.45;1.63;;;;;;;20.59;42.26;101038.00;5028066;28;20033;-69
2022/11/25 06:28:02;;;;;;;2.95;1.70;;;;;;;20.58;42.08;101057.53;5026673;28;20561;-69
2022/11/25 06:30:28;;;;;;;3.33;1.98;;;;;;;20.59;42.09;101061.81;5024946;28;20652;-69
2022/11/25 06:33:13;;;;;;;3.35;1.77;;;;;;;20.57;42.11;101061.19;5029019;28;20037;-69
2022/11/25 06:35:42;;;;;;;4.10;1.92;;;;;;;20.65;42.06;101064.59;5030302;28;20552;-69
2022/11/25 06:38:08;;;;;;;2.50;1.80;;;;;;;20.61;42.16;101073.03;5028735;28;20044;-68
2022/11/25 06:40:34;;;;;;;4.07;2.00;;;;;;;20.64;41.98;101077.97;5032053;28;20049;-69
2022/11/25 06:42:59;;;;;;;2.97;1.83;;;;;;;20.65;41.97;101077.81;5030560;28;20412;-69
2022/11/25 06:45:25;;;;;;;4.40;1.95;;;;;;;20.61;42.05;101081.81;5032328;28;20052;-69
2022/11/25 06:47:50;;;;;;;2.60;1.75;;;;;;;20.62;42.14;101085.28;5024519;28;20044;-69
2022/11/25 06:50:16;;;;;;;3.08;1.70;;;;;;;20.68;41.98;101095.16;5025052;28;20193;-68
2022/11/25 06:52:41;;;;;;;2.75;1.70;;;;;;;20.71;41.98;101090.31;5025502;28;20427;-69
2022/11/25 06:55:07;;;;;;;4.63;1.90;;;;;;;20.71;41.94;101085.03;5025998;28;20038;-68
2022/11/25 06:57:33;;;;;;;3.13;1.52;;;;;;;20.65;42.21;101091.06;5023142;28;20037;-69
2022/11/25 06:59:59;;;;;;;2.05;1.35;;;;;;;20.74;42.03;101097.91;5027443;28;20415;-69
2022/11/25 07:02:24;;;;;;;3.97;1.80;;;;;;;20.71;41.90;101098.25;5030930;28;20041;-69
2022/11/25 07:04:50;;;;;;;3.50;1.52;;;;;;;20.71;41.97;101100.91;5024751;28;20033;-69
2022/11/25 07:07:15;;;;;;;4.47;1.63;;;;;;;20.71;41.97;101111.50;5030190;28;20099;-69
2022/11/25 07:09:41;;;;;;;3.03;1.90;;;;;;;20.71;42.10;101114.13;5026011;28;20041;-69
2022/11/25 07:12:06;;;;;;;3.60;2.08;;;;;;;20.71;42.18;101108.03;5026816;28;20495;-69
2022/11/25 07:14:32;;;;;;;3.13;1.80;;;;;;;20.72;42.21;101114.97;5026694;28;20037;-68
2022/11/25 07:16:57;;;;;;;2.88;1.70;;;;;;;20.58;42.41;101116.56;5030155;28;20029;-69
2022/11/25 07:19:23;;;;;;;2.78;1.70;;;;;;;20.71;42.14;101118.63;5028765;28;20043;-69
2022/11/25 07:21:48;;;;;;;5.35;1.58;;;;;;;20.70;42.01;101116.97;5024659;28;20120;-69
2022/11/25 07:24:16;;;;;;;1.85;1.23;;;;;;;20.65;42.24;101114.88;5028014;28;20043;-69
2022/11/25 07:26:43;;;;;;;3.63;1.42;;;;;;;20.72;42.18;101125.56;5032642;28;20037;-69
2022/11/25 07:29:11;;;;;;;4.10;1.65;;;;;;;20.75;41.93;101122.53;5026893;28;20040;-69
2022/11/25 07:31:39;;;;;;;1.90;1.40;;;;;;;20.73;42.02;101132.47;5027348;28;20825;-69
2022/11/25 07:34:10;;;;;;;1.92;1.50;;;;;;;20.64;42.40;101130.91;5024971;28;20037;-69
2022/11/25 07:36:36;;;;;;;2.50;1.50;;;;;;;20.69;42.22;101132.03;5025498;28;20599;-69
2022/11/25 07:39:05;;;;;;;3.63;1.65;;;;;;;20.75;42.25;101138.41;5026112;28;20534;-69
2022/11/25 07:41:31;;;;;;;3.97;1.90;;;;;;;20.70;42.25;101138.97;5026798;28;20053;-69
2022/11/25 07:43:59;;;;;;;4.10;1.73;;;;;;;20.70;42.12;101143.44;5030005;28;20114;-69
2022/11/25 07:46:33;;;;;;;3.60;1.83;;;;;;;20.75;42.15;101143.72;5030805;28;20037;-69
2022/11/25 07:49:01;;;;;;;4.25;2.70;;;;;;;20.70;42.26;101149.53;5033677;28;20365;-69
2022/11/25 07:51:34;;;;;;;3.33;2.22;;;;;;;20.72;42.35;101159.94;5032479;28;20621;-69
2022/11/25 07:54:02;;;;;;;3.45;2.00;;;;;;;20.78;42.17;101170.63;5031129;28;20760;-68
2022/11/25 07:56:28;;;;;;;2.50;1.75;;;;;;;20.72;42.23;101174.00;5029525;28;20742;-69
2022/11/25 07:58:54;;;;;;;2.75;1.70;;;;;;;20.67;42.31;101176.38;5033428;28;20994;-69
2022/11/25 08:01:20;;;;;;;2.97;1.70;;;;;;;20.73;42.35;101182.78;5025556;28;20060;-69
2022/11/25 08:03:47;;;;;;;2.47;1.63;;;;;;;20.76;42.10;101182.41;5024014;28;20041;-69
2022/11/25 08:06:16;;;;;;;4.55;1.60;;;;;;;20.77;42.02;101178.75;5029194;28;20045;-69
2022/11/25 08:08:42;;;;;;;2.88;1.90;;;;;;;20.71;42.08;101179.47;5030205;28;20041;-68
2022/11/25 08:11:12;;;;;;;2.95;1.25;;;;;;;20.65;42.37;101173.06;5030318;28;20036;-69
2022/11/25 08:13:38;;;;;;;3.08;1.67;;;;;;;20.72;42.31;101195.19;5027672;28;20045;-69
2022/11/25 08:16:05;;;;;;;3.15;1.73;;;;;;;20.69;42.12;101184.13;5027563;28;20084;-67
2022/11/25 08:18:31;;;;;;;5.25;1.90;;;;;;;20.72;42.28;101194.34;5030412;28;20541;-69
2022/11/25 08:21:01;;;;;;;3.65;1.58;;;;;;;20.72;42.07;101192.53;5030666;28;20044;-68
2022/11/25 08:23:26;;;;;;;3.63;1.33;;;;;;;20.70;42.12;101191.06;5038520;28;20078;-67
2022/11/25 08:25:52;;;;;;;2.55;1.60;;;;;;;20.67;42.31;101194.06;5036672;28;20072;-68
2022/11/25 08:28:18;;;;;;;3.50;1.50;;;;;;;20.62;42.42;101206.97;5030535;28;20036;-67
2022/11/25 08:30:43;;;;;;;4.03;1.80;;;;;;;20.65;42.29;101217.25;5031546;28;20669;-68
2022/11/25 08:33:09;;;;;;;3.13;1.70;;;;;;;20.66;42.34;101211.78;5030475;28;20033;-67
2022/11/25 08:35:37;;;;;;;3.30;1.65;;;;;;;20.70;42.14;101213.06;5032655;28;20037;-67
2022/11/25 08:38:05;;;;;;;6.25;1.73;;;;;;;20.68;42.27;101209.78;5027056;28;20053;-68
2022/11/25 08:40:32;;;;;;;3.58;1.92;;;;;;;20.69;42.19;101211.41;5032800;28;21631;-68
2022/11/25 08:42:58;;;;;;;4.28;1.80;;;;;;;20.69;42.22;101210.59;5030335;28;20043;-67
2022/11/25 08:45:23;;;;;;;4.35;1.73;;;;;;;20.63;42.10;101203.34;5029819;28;20037;-66
2022/11/25 08:47:49;;;;;;;4.25;1.90;;;;;;;20.70;42.56;101214.88;5032093;28;20046;-68
2022/11/25 08:50:14;;;;;;;4.78;1.90;;;;;;;20.66;42.17;101217.06;5031987;28;20060;-67
2022/11/25 08:52:40;;;;;;;3.75;1.48;;;;;;;20.65;42.23;101230.47;5027622;28;20044;-68
2022/11/25 08:55:07;;;;;;;2.83;1.60;;;;;;;20.66;42.09;101226.81;5029704;28;20128;-67
2022/11/25 08:57:33;;;;;;;4.82;1.95;;;;;;;20.45;42.68;101224.78;5028443;28;20044;-68
2022/11/25 08:59:59;;;;;;;4.80;2.00;;;;;;;20.60;42.49;101230.97;5036339;28;20047;-68
2022/11/25 09:02:24;;;;;;;4.63;1.90;;;;;;;20.70;42.37;101236.06;5035997;28;20037;-67
2022/11/25 09:04:50;;;;;;;4.88;1.83;;;;;;;20.70;42.56;101236.88;5039435;28;20744;-68
2022/11/25 09:07:16;;;;;;;3.75;1.88;;;;;;;20.68;42.34;101230.13;5031684;28;20048;-67
2022/11/25 09:09:41;;;;;;;5.50;1.83;;;;;;;20.66;42.25;101240.88;5035450;28;20036;-68
2022/11/25 09:12:07;;;;;;;3.47;1.75;;;;;;;20.72;41.97;101244.63;5035400;28;20091;-68
2022/11/25 09:14:32;;;;;;;5.72;2.30;;;;;;;20.66;41.90;101242.69;5036859;28;20040;-68
2022/11/25 09:16:58;;;;;;;3.50;1.50;;;;;;;20.69;42.25;101247.63;5043592;28;20037;-68
2022/11/25 09:19:23;;;;;;;5.00;2.03;;;;;;;20.71;41.98;101254.41;5038388;28;20036;-68
2022/11/25 09:21:49;;;;;;;4.95;1.90;;;;;;;20.68;42.19;101262.69;5031260;28;20043;-67
2022/11/25 09:24:14;;;;;;;4.05;1.80;;;;;;;20.67;42.29;101262.88;5034593;28;20045;-67
2022/11/25 09:26:41;;;;;;;4.78;1.92;;;;;;;20.65;42.21;101268.34;5037936;28;20036;-68
2022/11/25 09:29:07;;;;;;;3.38;2.05;;;;;;;20.67;42.16;101273.47;5036369;28;20031;-68
2022/11/25 09:31:33;;;;;;;6.00;2.15;;;;;;;20.66;42.05;101269.16;5035892;28;20499;-67
2022/11/25 09:33:58;;;;;;;3.03;1.73;;;;;;;20.67;42.00;101273.47;5033663;28;20176;-68
2022/11/25 09:36:24;;;;;;;5.47;2.10;;;;;;;20.65;42.10;101281.56;5029981;28;20569;-68
2022/11/25 09:38:50;;;;;;;4.82;2.15;;;;;;;20.66;41.90;101277.94;5029341;28;20041;-67
2022/11/25 09:47:53;;;;;;;3.90;2.17;;;;;;;20.68;41.97;101286.50;5028410;28;20033;-67
2022/11/25 09:50:44;;;;;;;3.53;1.73;;;;;;;20.63;41.95;101294.13;5030404;28;20045;-66
2022/11/25 09:53:16;;;;;;;3.65;1.65;;;;;;;20.61;41.96;101295.31;5031182;28;20060;-67
2022/11/25 09:55:46;;;;;;;1.85;1.63;;;;;;;20.63;42.06;101298.59;5035107;28;20134;-67
2022/11/25 09:58:45;;;;;;;3.53;1.80;;;;;;;20.65;41.92;101308.03;5031564;28;20052;-68
2022/11/25 10:01:45;;;;;;;4.15;1.63;;;;;;;20.62;41.99;101310.19;5026869;28;20041;-68
2022/11/25 10:04:18;;;;;;;4.22;1.70;;;;;;;20.62;42.17;101311.00;5024993;28;20045;-68
2022/11/25 10:06:53;;;;;;;6.40;2.22;;;;;;;20.62;41.92;101313.66;5029547;28;20486;-68
2022/11/25 10:09:25;;;;;;;3.67;1.80;;;;;;;20.68;42.04;101317.44;5024395;28;20469;-67
2022/11/25 10:12:16;;;;;;;3.28;1.80;;;;;;;20.58;41.95;101317.66;5024750;28;20478;-67
2022/11/25 10:14:51;;;;;;;2.80;1.65;;;;;;;20.58;42.08;101316.81;5036109;28;20060;-68
2022/11/25 10:17:44;;;;;;;3.10;1.55;;;;;;;20.66;42.09;101320.28;5035272;28;20094;-66
2022/11/25 10:20:18;;;;;;;3.13;1.70;;;;;;;20.84;41.79;101322.66;5002307;28;20037;-67
2022/11/25 10:22:51;;;;;;;6.97;1.95;;;;;;;20.98;41.65;101321.06;5029107;28;20828;-65
2022/11/25 10:25:22;;;;;;;3.65;2.15;;;;;;;21.04;41.74;101331.78;5033035;28;20044;-66
2022/11/25 10:27:47;;;;;;;5.30;2.50;;;;;;;21.08;41.87;101324.31;5037448;28;20059;-66
2022/11/25 10:30:27;;;;;;;3.85;1.80;;;;;;;21.01;42.00;101337.44;5026777;28;20049;-64
2022/11/25 10:33:09;;;;;;;4.85;2.00;;;;;;;20.93;42.02;101336.66;5035239;28;20075;-63
2022/11/25 10:35:42;;;;;;;7.00;2.30;;;;;;;20.89;41.90;101338.00;5003133;28;20044;-63
2022/11/25 10:38:18;;;;;;;5.45;2.03;;;;;;;20.66;42.28;101336.16;5039604;28;20041;-65
2022/11/25 10:40:47;;;;;;;6.13;2.83;;;;;;;21.02;41.57;101348.84;5037774;28;20079;-67
2022/11/25 10:43:14;;;;;;;4.10;1.77;;;;;;;21.07;41.43;101344.69;5032876;28;20048;-65
2022/11/25 10:46:26;;;;;;;7.90;2.63;;;;;;;21.12;41.19;101347.63;5032052;28;20103;-65
2022/11/25 10:49:06;;;;;;;4.15;2.22;;;;;;;21.17;40.88;101354.19;5002428;28;20053;-65
2022/11/25 10:51:53;;;;;;;5.45;2.20;;;;;;;21.21;40.76;101350.22;5003519;28;20040;-66
2022/11/25 10:54:21;;;;;;;7.55;2.72;;;;;;;21.24;40.93;101360.47;5033557;28;20047;-67
2022/11/25 10:56:51;;;;;;;7.55;2.17;;;;;;;21.25;40.87;101357.66;5035094;28;20103;-67
2022/11/25 10:59:35;;;;;;;5.78;2.67;;;;;;;21.23;40.80;101356.16;5031480;28;20041;-67
2022/11/25 11:02:25;;;;;;;6.13;2.30;;;;;;;21.24;40.58;101369.25;5038417;28;20498;-65
2022/11/25 11:05:01;;;;;;;5.93;2.40;;;;;;;21.26;40.48;101371.72;5031542;28;20032;-66
2022/11/25 11:07:31;;;;;;;8.98;2.53;;;;;;;21.30;40.69;101384.44;5012562;28;20478;-65
2022/11/25 11:10:16;;;;;;;6.30;2.50;;;;;;;21.34;40.66;101376.97;5037759;28;20036;-66
2022/11/25 11:13:00;;;;;;;7.43;2.67;;;;;;;21.26;40.93;101380.50;5038284;28;20399;-65
2022/11/25 11:15:27;;;;;;;4.88;2.08;;;;;;;21.25;41.20;101380.69;5036079;28;20037;-66
2022/11/25 11:17:54;;;;;;;6.38;2.17;;;;;;;21.35;41.13;101387.38;5032177;28;20104;-66
2022/11/25 11:20:30;;;;;;;4.80;2.30;;;;;;;21.34;40.96;101385.72;5027914;28;20068;-65
2022/11/25 11:23:01;;;;;;;4.65;2.30;;;;;;;21.41;41.07;101391.16;5012534;28;20037;-66
2022/11/25 11:25:36;;;;;;;6.43;2.25;;;;;;;21.41;40.94;101391.16;5038519;28;20068;-65
2022/11/25 11:28:22;;;;;;;6.72;2.33;;;;;;;21.44;40.98;101401.41;5028634;28;20032;-65
2022/11/25 11:31:16;;;;;;;7.20;2.40;;;;;;;21.48;40.73;101410.66;5039464;28;20036;-67
2022/11/25 11:33:47;;;;;;;5.93;2.10;;;;;;;21.49;40.66;101408.81;5026212;28;20053;-66
2022/11/25 11:36:45;;;;;;;6.30;2.35;;;;;;;21.52;40.94;101411.94;5032229;28;20033;-66
2022/11/25 11:39:16;;;;;;;8.48;2.63;;;;;;;21.53;40.73;101416.22;5005299;28;20091;-67
2022/11/25 11:42:14;;;;;;;6.80;2.17;;;;;;;21.53;40.85;101413.59;5034247;28;20147;-66
2022/11/25 11:45:04;;;;;;;5.57;2.30;;;;;;;21.45;41.16;101418.13;5035797;28;20421;-64
2022/11/25 11:47:57;;;;;;;7.43;2.97;;;;;;;21.45;41.21;101415.47;5030517;28;20044;-64
2022/11/25 11:50:28;;;;;;;7.63;3.20;;;;;;;21.44;41.11;101416.47;5033496;28;20036;-64
2022/11/25 11:53:08;;;;;;;6.18;2.03;;;;;;;21.41;41.35;101422.97;5030641;28;20392;-63